createdAt,value
2019-05-09T00:02:33.879Z,9.45
2019-05-09T00:05:04.546Z,9.40
2019-05-09T00:07:35.036Z,9.33
2019-05-09T00:10:07.008Z,9.31
2019-05-09T00:12:37.654Z,9.24
2019-05-09T00:15:09.100Z,9.17
2019-05-09T00:17:39.736Z,9.18
2019-05-09T00:20:16.608Z,9.15
2019-05-09T00:22:47.186Z,9.12
2019-05-09T00:25:17.693Z,9.06
2019-05-09T00:27:48.248Z,9.00
2019-05-09T00:30:22.671Z,8.98
2019-05-09T00:32:53.438Z,8.94
2019-05-09T00:35:30.032Z,8.93
2019-05-09T00:38:05.366Z,8.93
2019-05-09T00:40:35.871Z,9.02
2019-05-09T00:43:06.999Z,9.10
2019-05-09T00:46:04.073Z,9.20
2019-05-09T00:48:43.969Z,9.27
2019-05-09T00:51:14.530Z,9.29
2019-05-09T00:53:44.957Z,9.33
2019-05-09T00:58:44.390Z,9.41
2019-05-09T01:01:15.359Z,9.36
2019-05-09T01:03:45.969Z,9.37
2019-05-09T01:06:16.519Z,9.38
2019-05-09T01:08:47.032Z,9.36
2019-05-09T01:11:17.547Z,9.29
2019-05-09T01:13:48.580Z,9.21
2019-05-09T01:16:19.639Z,9.12
2019-05-09T01:18:50.288Z,9.04
2019-05-09T01:21:21.232Z,8.98
2019-05-09T01:23:53.977Z,8.95
2019-05-09T01:28:47.699Z,8.98
2019-05-09T01:31:18.594Z,8.95
2019-05-09T01:34:00.318Z,8.95
2019-05-09T01:37:05.070Z,8.94
2019-05-09T01:39:36.753Z,8.84
2019-05-09T01:42:07.812Z,8.80
2019-05-09T01:44:38.595Z,8.73
2019-05-09T01:49:49.683Z,8.74
2019-05-09T01:52:20.291Z,8.71
2019-05-09T01:54:50.810Z,8.70
2019-05-09T01:57:23.277Z,8.71
2019-05-09T01:59:53.509Z,8.71
2019-05-09T02:02:24.220Z,8.71
2019-05-09T02:04:54.872Z,8.65
2019-05-09T02:07:25.398Z,8.67
2019-05-09T02:09:55.929Z,8.65
2019-05-09T02:12:33.781Z,8.65
2019-05-09T02:15:18.058Z,8.66
2019-05-09T02:18:08.376Z,8.65
2019-05-09T02:20:38.918Z,8.61
2019-05-09T02:23:09.727Z,8.61
2019-05-09T02:25:40.413Z,8.64
2019-05-09T02:28:11.111Z,8.64
2019-05-09T02:30:44.925Z,8.61
2019-05-09T02:33:14.752Z,8.62
2019-05-09T02:35:52.829Z,8.60
2019-05-09T02:38:19.946Z,8.58
2019-05-09T02:40:50.143Z,8.54
2019-05-09T02:43:20.932Z,8.55
2019-05-09T02:46:13.303Z,8.56
2019-05-09T02:48:44.279Z,8.57
2019-05-09T02:51:18.175Z,8.56
2019-05-09T02:53:48.561Z,8.60
2019-05-09T02:56:19.474Z,8.63
2019-05-09T02:59:00.451Z,8.62
2019-05-09T03:01:44.182Z,8.65
2019-05-09T03:04:14.956Z,8.64
2019-05-09T03:06:48.895Z,8.61
2019-05-09T03:09:18.961Z,8.61
2019-05-09T03:11:49.920Z,8.59
2019-05-09T03:14:20.762Z,8.59
2019-05-09T03:16:51.429Z,8.61
2019-05-09T03:19:21.964Z,8.63
2019-05-09T03:21:58.433Z,8.62
2019-05-09T03:24:29.392Z,8.65
2019-05-09T03:27:04.324Z,8.67
2019-05-09T03:29:39.852Z,8.68
2019-05-09T03:32:10.498Z,8.68
2019-05-09T03:34:41.040Z,8.69
2019-05-09T03:37:11.888Z,8.68
2019-05-09T03:42:39.682Z,8.80
2019-05-09T03:44:58.199Z,8.78
2019-05-09T03:47:34.378Z,8.77
2019-05-09T03:50:09.708Z,8.78
2019-05-09T03:52:40.370Z,8.78
2019-05-09T03:55:13.456Z,8.74
2019-05-09T03:57:49.227Z,8.80
2019-05-09T04:00:20.748Z,8.81
2019-05-09T04:02:51.458Z,8.87
2019-05-09T04:05:21.978Z,8.93
2019-05-09T04:07:52.614Z,8.98
2019-05-09T04:10:23.043Z,9.04
2019-05-09T04:12:56.597Z,9.13
2019-05-09T04:17:57.850Z,9.36
2019-05-09T04:20:28.338Z,9.42
2019-05-09T04:22:59.565Z,9.49
2019-05-09T04:25:32.577Z,9.55
2019-05-09T04:28:03.964Z,9.63
2019-05-09T04:30:34.579Z,9.74
2019-05-09T04:33:07.226Z,9.80
2019-05-09T04:35:38.271Z,9.86
2019-05-09T04:38:08.752Z,9.94
2019-05-09T04:40:44.716Z,10.00
2019-05-09T04:43:16.861Z,10.10
2019-05-09T04:45:48.964Z,10.17
2019-05-09T04:48:31.649Z,10.27
2019-05-09T04:51:03.725Z,10.37
2019-05-09T04:53:34.485Z,10.47
2019-05-09T04:56:27.978Z,10.59
2019-05-09T04:58:58.453Z,10.71
2019-05-09T05:01:44.512Z,10.81
2019-05-09T05:04:14.749Z,10.92
2019-05-09T05:06:44.914Z,11.04
2019-05-09T05:09:15.123Z,11.17
2019-05-09T05:11:47.111Z,11.23
2019-05-09T05:14:23.944Z,11.26
2019-05-09T05:16:58.256Z,11.25
2019-05-09T05:19:30.915Z,11.22
2019-05-09T05:22:07.420Z,11.19
2019-05-09T05:24:43.047Z,11.16
2019-05-09T05:27:13.334Z,11.17
2019-05-09T05:29:43.539Z,11.18
2019-05-09T05:32:19.766Z,11.21
2019-05-09T05:35:01.723Z,11.25
2019-05-09T05:37:32.086Z,11.28
2019-05-09T05:40:02.312Z,11.30
2019-05-09T05:42:32.514Z,11.31
2019-05-09T05:45:02.900Z,11.34
2019-05-09T05:47:48.546Z,11.41
2019-05-09T05:50:18.951Z,11.45
2019-05-09T05:52:49.176Z,11.50
2019-05-09T05:55:19.532Z,11.58
2019-05-09T05:57:49.664Z,11.65
2019-05-09T06:00:21.886Z,11.72
2019-05-09T06:02:52.146Z,11.80
2019-05-09T06:05:24.766Z,11.89
2019-05-09T06:07:57.457Z,12.01
2019-05-09T06:10:28.987Z,12.12
2019-05-09T06:12:59.102Z,12.19
2019-05-09T06:15:29.366Z,12.27
2019-05-09T06:17:59.554Z,12.35
2019-05-09T06:20:29.897Z,12.39
2019-05-09T06:23:00.255Z,12.37
2019-05-09T06:25:31.006Z,12.39
2019-05-09T06:28:01.251Z,12.42
2019-05-09T06:30:32.380Z,12.48
2019-05-09T06:33:05.101Z,12.54
2019-05-09T06:35:37.749Z,12.60
2019-05-09T06:38:07.925Z,12.66
2019-05-09T06:40:38.430Z,12.72
2019-05-09T06:43:18.687Z,12.78
2019-05-09T06:46:08.176Z,12.87
2019-05-09T06:48:38.656Z,12.97
2019-05-09T06:51:09.009Z,13.01
2019-05-09T06:53:39.300Z,13.07
2019-05-09T06:56:09.509Z,13.28
2019-05-09T06:58:40.047Z,13.28
2019-05-09T07:01:32.456Z,13.26
2019-05-09T07:04:09.137Z,13.26
2019-05-09T07:06:43.737Z,13.17
2019-05-09T07:09:21.264Z,13.07
2019-05-09T07:11:51.547Z,13.14
2019-05-09T07:14:32.288Z,13.29
2019-05-09T07:17:00.966Z,13.51
2019-05-09T07:19:31.308Z,13.67
2019-05-09T07:22:39.365Z,13.96
2019-05-09T07:25:43.954Z,14.11
2019-05-09T07:28:14.267Z,14.27
2019-05-09T07:31:03.738Z,14.39
2019-05-09T07:33:47.863Z,14.53
2019-05-09T07:36:18.862Z,14.52
2019-05-09T07:38:49.308Z,14.42
2019-05-09T07:41:19.517Z,14.41
2019-05-09T07:43:49.701Z,14.47
2019-05-09T07:46:28.646Z,14.53
2019-05-09T07:49:00.106Z,14.53
2019-05-09T07:51:30.434Z,14.61
2019-05-09T07:54:00.684Z,14.75
2019-05-09T07:56:30.913Z,14.93
2019-05-09T07:59:01.156Z,15.15
2019-05-09T08:01:31.536Z,15.40
2019-05-09T08:04:01.771Z,15.61
2019-05-09T08:06:32.131Z,15.82
2019-05-09T08:09:02.410Z,16.01
2019-05-09T08:11:32.603Z,16.17
2019-05-09T08:14:03.055Z,16.32
2019-05-09T08:16:33.350Z,16.53
2019-05-09T08:19:03.601Z,16.76
2019-05-09T08:21:33.921Z,17.03
2019-05-09T08:24:04.141Z,17.17
2019-05-09T08:26:34.292Z,17.25
2019-05-09T08:29:04.652Z,17.34
2019-05-09T08:31:34.784Z,17.42
2019-05-09T08:34:05.069Z,17.46
2019-05-09T08:36:35.150Z,17.53
2019-05-09T08:39:08.449Z,17.70
2019-05-09T08:41:38.731Z,17.86
2019-05-09T08:44:09.288Z,17.96
2019-05-09T08:46:39.528Z,18.02
2019-05-09T08:49:09.906Z,18.01
2019-05-09T08:52:09.192Z,18.02
2019-05-09T08:54:41.858Z,18.09
2019-05-09T08:57:12.234Z,18.15
2019-05-09T08:59:42.465Z,18.30
2019-05-09T09:02:16.523Z,18.49
2019-05-09T09:04:44.587Z,18.58
2019-05-09T09:07:14.805Z,18.68
2019-05-09T09:09:45.031Z,18.81
2019-05-09T09:12:27.140Z,19.00
2019-05-09T09:14:47.796Z,19.18
2019-05-09T09:17:18.894Z,19.37
2019-05-09T09:19:49.209Z,19.62
2019-05-09T09:22:19.428Z,19.77
2019-05-09T09:24:49.655Z,19.96
2019-05-09T09:27:19.973Z,20.06
2019-05-09T09:29:50.188Z,20.15
2019-05-09T09:32:20.426Z,20.29
2019-05-09T09:34:50.629Z,20.34
2019-05-09T09:37:20.732Z,20.49
2019-05-09T09:39:50.887Z,20.76
2019-05-09T09:42:21.237Z,21.04
2019-05-09T09:44:51.448Z,21.30
2019-05-09T09:47:23.375Z,21.45
2019-05-09T09:49:55.133Z,21.57
2019-05-09T09:52:25.545Z,21.70
2019-05-09T09:54:58.079Z,21.81
2019-05-09T09:57:28.867Z,21.94
2019-05-09T10:00:18.056Z,22.21
2019-05-09T10:02:48.358Z,22.32
2019-05-09T10:05:18.613Z,22.10
2019-05-09T10:07:48.738Z,22.01
2019-05-09T10:10:36.574Z,22.05
2019-05-09T10:13:10.489Z,22.27
2019-05-09T10:15:58.704Z,22.87
2019-05-09T10:18:50.021Z,23.17
2019-05-09T10:21:27.667Z,23.37
2019-05-09T10:23:57.906Z,23.24
2019-05-09T10:26:28.485Z,23.09
2019-05-09T10:28:58.769Z,22.97
2019-05-09T10:31:29.101Z,23.05
2019-05-09T10:33:59.230Z,22.94
2019-05-09T10:36:29.487Z,22.91
2019-05-09T10:38:59.709Z,22.78
2019-05-09T10:41:29.908Z,22.77
2019-05-09T10:44:17.868Z,22.76
2019-05-09T10:46:57.765Z,23.01
2019-05-09T10:49:24.399Z,23.24
2019-05-09T10:51:54.592Z,23.47
2019-05-09T10:54:24.689Z,23.76
2019-05-09T10:56:54.812Z,23.92
2019-05-09T10:59:24.932Z,23.78
2019-05-09T11:01:57.720Z,23.46
2019-05-09T11:04:28.777Z,23.37
2019-05-09T11:06:59.048Z,23.35
2019-05-09T11:09:29.360Z,23.07
2019-05-09T11:12:01.213Z,22.84
2019-05-09T11:14:36.847Z,22.72
2019-05-09T11:17:10.659Z,22.61
2019-05-09T11:19:35.607Z,22.57
2019-05-09T11:22:08.036Z,22.64
2019-05-09T11:24:45.703Z,22.89
2019-05-09T11:27:10.495Z,23.40
2019-05-09T11:29:40.637Z,23.86
2019-05-09T11:32:10.782Z,24.01
2019-05-09T11:34:41.122Z,23.99
2019-05-09T11:37:11.288Z,23.68
2019-05-09T11:39:42.381Z,23.40
2019-05-09T11:42:12.672Z,22.96
2019-05-09T11:44:42.848Z,22.64
2019-05-09T11:47:31.450Z,22.83
2019-05-09T11:49:47.911Z,23.46
2019-05-09T11:52:18.331Z,23.57
2019-05-09T11:54:48.721Z,23.45
2019-05-09T11:57:19.279Z,23.43
2019-05-09T11:59:49.493Z,23.10
2019-05-09T12:02:19.680Z,22.93
2019-05-09T12:04:49.775Z,23.41
2019-05-09T12:07:19.892Z,23.84
2019-05-09T12:09:50.039Z,24.38
2019-05-09T12:12:20.263Z,25.05
2019-05-09T12:14:50.519Z,25.49
2019-05-09T12:17:20.633Z,25.35
2019-05-09T12:19:50.759Z,24.86
2019-05-09T12:22:20.902Z,24.31
2019-05-09T12:24:53.876Z,23.90
2019-05-09T12:27:22.744Z,23.55
2019-05-09T12:29:52.821Z,23.82
2019-05-09T12:32:22.995Z,24.91
2019-05-09T12:34:53.108Z,25.76
2019-05-09T12:37:23.284Z,25.85
2019-05-09T12:39:53.619Z,25.38
2019-05-09T12:42:23.760Z,24.89
2019-05-09T12:44:53.912Z,24.77
2019-05-09T12:47:24.163Z,24.52
2019-05-09T12:49:54.218Z,24.10
2019-05-09T12:52:24.336Z,23.62
2019-05-09T12:54:54.524Z,23.17
2019-05-09T12:57:24.671Z,22.88
2019-05-09T12:59:54.729Z,22.77
2019-05-09T13:02:24.897Z,22.63
2019-05-09T13:04:54.961Z,22.62
2019-05-09T13:07:25.195Z,22.69
2019-05-09T13:09:58.073Z,23.79
2019-05-09T13:12:29.124Z,25.55
2019-05-09T13:14:59.273Z,26.37
2019-05-09T13:17:48.259Z,26.38
2019-05-09T13:20:19.139Z,26.40
2019-05-09T13:22:49.463Z,27.76
2019-05-09T13:25:19.624Z,28.91
2019-05-09T13:27:52.735Z,29.98
2019-05-09T13:30:21.889Z,30.90
2019-05-09T13:32:52.198Z,31.36
2019-05-09T13:35:22.363Z,30.79
2019-05-09T13:37:52.604Z,29.44
2019-05-09T13:40:22.937Z,27.91
2019-05-09T13:42:53.233Z,26.56
2019-05-09T13:45:23.516Z,25.64
2019-05-09T13:47:53.739Z,24.86
2019-05-09T13:50:24.055Z,24.14
2019-05-09T13:52:54.140Z,23.64
2019-05-09T13:55:24.362Z,23.25
2019-05-09T13:57:54.815Z,22.86
2019-05-09T14:00:25.042Z,22.58
2019-05-09T14:02:55.205Z,22.31
2019-05-09T14:05:25.493Z,22.04
2019-05-09T14:08:01.364Z,21.79
2019-05-09T14:10:28.989Z,21.62
2019-05-09T14:13:06.871Z,21.32
2019-05-09T14:15:31.354Z,20.97
2019-05-09T14:18:01.575Z,20.76
2019-05-09T14:20:31.723Z,20.60
2019-05-09T14:23:01.852Z,20.50
2019-05-09T14:25:32.149Z,20.40
2019-05-09T14:28:02.529Z,20.33
2019-05-09T14:30:32.990Z,20.37
2019-05-09T14:33:03.229Z,20.53
2019-05-09T14:35:33.529Z,20.65
2019-05-09T14:38:04.179Z,20.60
2019-05-09T14:40:34.408Z,20.52
2019-05-09T14:43:04.766Z,20.34
2019-05-09T14:45:35.036Z,20.15
2019-05-09T14:48:07.820Z,20.04
2019-05-09T14:50:38.165Z,19.91
2019-05-09T14:53:08.846Z,19.74
2019-05-09T14:55:42.824Z,19.40
2019-05-09T14:58:11.133Z,19.19
2019-05-09T15:00:41.386Z,19.10
2019-05-09T15:03:11.624Z,19.06
2019-05-09T15:05:41.711Z,19.09
2019-05-09T15:08:11.864Z,19.32
2019-05-09T15:10:42.200Z,19.65
2019-05-09T15:13:12.468Z,21.57
2019-05-09T15:15:42.751Z,24.54
2019-05-09T15:18:13.072Z,25.26
2019-05-09T15:20:43.425Z,24.80
2019-05-09T15:23:13.627Z,24.27
2019-05-09T15:25:43.912Z,24.39
2019-05-09T15:28:14.148Z,26.30
2019-05-09T15:30:44.635Z,26.65
2019-05-09T15:33:14.794Z,26.10
2019-05-09T15:35:45.086Z,25.63
2019-05-09T15:38:17.945Z,27.01
2019-05-09T15:40:48.160Z,28.76
2019-05-09T15:43:18.758Z,28.53
2019-05-09T15:45:58.230Z,26.74
2019-05-09T15:48:28.665Z,25.03
2019-05-09T15:50:59.119Z,23.69
2019-05-09T15:53:29.373Z,22.88
2019-05-09T15:55:59.606Z,22.31
2019-05-09T15:58:29.927Z,22.17
2019-05-09T16:01:00.065Z,22.11
2019-05-09T16:03:30.455Z,21.97
2019-05-09T16:06:00.723Z,21.76
2019-05-09T16:08:31.294Z,21.43
2019-05-09T16:11:01.873Z,21.04
2019-05-09T16:13:32.298Z,20.71
2019-05-09T16:16:02.903Z,20.36
2019-05-09T16:18:33.267Z,19.98
2019-05-09T16:21:03.792Z,19.67
2019-05-09T16:23:34.481Z,19.37
2019-05-09T16:26:07.294Z,19.13
2019-05-09T16:31:30.736Z,18.76
2019-05-09T16:34:01.435Z,18.51
2019-05-09T16:36:31.902Z,18.26
2019-05-09T16:39:07.639Z,18.08
2019-05-09T16:41:39.123Z,17.91
2019-05-09T16:44:09.877Z,17.78
2019-05-09T16:46:40.308Z,17.64
2019-05-09T16:49:11.860Z,17.36
2019-05-09T16:51:42.297Z,16.93
2019-05-09T16:54:12.690Z,16.42
2019-05-09T16:56:43.026Z,16.08
2019-05-09T16:59:13.293Z,15.90
2019-05-09T17:01:49.304Z,15.80
2019-05-09T17:04:19.249Z,15.77
2019-05-09T17:06:49.724Z,15.80
2019-05-09T17:09:20.404Z,15.74
2019-05-09T17:11:50.717Z,15.71
2019-05-09T17:14:21.097Z,15.72
2019-05-09T17:16:52.900Z,15.81
2019-05-09T17:19:23.357Z,15.97
2019-05-09T17:22:07.713Z,16.23
2019-05-09T17:24:40.051Z,16.49
2019-05-09T17:27:10.364Z,16.91
2019-05-09T17:29:40.725Z,17.50
2019-05-09T17:32:11.380Z,18.28
2019-05-09T17:34:42.358Z,18.86
2019-05-09T17:37:48.003Z,20.30
2019-05-09T17:40:19.281Z,21.90
2019-05-09T17:42:49.776Z,23.39
2019-05-09T17:47:58.851Z,24.12
2019-05-09T17:50:29.227Z,23.39
2019-05-09T17:52:59.968Z,22.62
2019-05-09T17:55:30.691Z,21.86
2019-05-09T17:58:01.430Z,21.04
2019-05-09T18:00:32.049Z,20.29
2019-05-09T18:03:02.582Z,19.66
2019-05-09T18:05:35.865Z,19.16
2019-05-09T18:08:07.861Z,18.69
2019-05-09T18:10:38.212Z,18.32
2019-05-09T18:13:08.972Z,18.01
2019-05-09T18:15:39.591Z,17.73
2019-05-09T18:18:10.230Z,17.50
2019-05-09T18:20:41.138Z,17.29
2019-05-09T18:23:12.615Z,17.11
2019-05-09T18:25:43.176Z,16.95
2019-05-09T18:28:13.756Z,16.80
2019-05-09T18:33:22.053Z,16.53
2019-05-09T18:35:52.556Z,16.37
2019-05-09T18:38:31.387Z,16.32
2019-05-09T18:41:01.981Z,16.24
2019-05-09T18:43:32.518Z,16.17
2019-05-09T18:46:03.058Z,16.08
2019-05-09T18:48:34.013Z,16.03
2019-05-09T18:51:04.535Z,15.96
2019-05-09T18:53:35.217Z,15.83
2019-05-09T18:56:05.704Z,15.71
2019-05-09T18:58:36.642Z,15.62
2019-05-09T19:01:07.362Z,15.56
2019-05-09T19:03:38.060Z,15.49
2019-05-09T19:06:08.502Z,15.46
2019-05-09T19:08:40.210Z,15.43
2019-05-09T19:11:12.103Z,15.39
2019-05-09T19:13:42.582Z,15.33
2019-05-09T19:16:35.681Z,15.29
2019-05-09T19:19:22.594Z,15.22
2019-05-09T19:21:56.339Z,15.13
2019-05-09T19:24:26.847Z,15.03
2019-05-09T19:26:57.267Z,14.99
2019-05-09T19:29:27.637Z,14.96
2019-05-09T19:32:00.943Z,14.95
2019-05-09T19:34:31.348Z,14.91
2019-05-09T19:37:01.789Z,14.80
2019-05-09T19:39:32.412Z,14.70
2019-05-09T19:42:02.889Z,14.57
2019-05-09T19:44:33.412Z,14.41
2019-05-09T19:47:03.975Z,14.30
2019-05-09T19:49:34.621Z,14.18
2019-05-09T19:52:05.552Z,14.08
2019-05-09T19:54:36.233Z,13.97
2019-05-09T19:57:07.822Z,13.86
2019-05-09T19:59:38.290Z,13.77
2019-05-09T20:02:08.988Z,13.67
2019-05-09T20:04:39.450Z,13.59
2019-05-09T20:07:09.925Z,13.49
2019-05-09T20:09:52.115Z,13.41
2019-05-09T20:12:32.421Z,13.32
2019-05-09T20:15:03.031Z,13.23
2019-05-09T20:17:33.594Z,13.14
2019-05-09T20:20:04.211Z,13.05
2019-05-09T20:22:35.266Z,12.98
2019-05-09T20:25:06.150Z,12.89
2019-05-09T20:27:36.714Z,12.80
2019-05-09T20:30:08.046Z,12.72
2019-05-09T20:32:38.560Z,12.67
2019-05-09T20:35:11.007Z,12.67
2019-05-09T20:37:41.666Z,12.59
2019-05-09T20:40:12.756Z,12.48
2019-05-09T20:42:43.534Z,12.39
2019-05-09T20:45:14.509Z,12.31
2019-05-09T20:47:46.107Z,12.27
2019-05-09T20:50:17.270Z,12.23
2019-05-09T20:52:48.887Z,12.17
2019-05-09T20:55:19.527Z,12.12
2019-05-09T20:57:52.121Z,12.08
2019-05-09T21:03:15.599Z,12.18
2019-05-09T21:05:46.267Z,12.03
2019-05-09T21:08:16.732Z,11.96
2019-05-09T21:10:47.627Z,11.91
2019-05-09T21:13:18.374Z,11.85
2019-05-09T21:15:49.249Z,11.80
2019-05-09T21:18:19.956Z,11.75
2019-05-09T21:20:51.822Z,11.70
2019-05-09T21:23:24.859Z,11.67
2019-05-09T21:25:54.481Z,11.63
2019-05-09T21:28:25.043Z,11.59
2019-05-09T21:30:55.493Z,11.55
2019-05-09T21:33:25.965Z,11.51
2019-05-09T21:35:56.212Z,11.47
2019-05-09T21:38:26.410Z,11.41
2019-05-09T21:43:27.793Z,11.41
2019-05-09T21:45:58.030Z,11.31
2019-05-09T21:48:28.309Z,11.28
2019-05-09T21:50:58.626Z,11.23
2019-05-09T21:53:40.315Z,11.19
2019-05-09T21:56:00.914Z,11.16
2019-05-09T21:58:31.207Z,11.14
2019-05-09T22:01:01.994Z,11.10
2019-05-09T22:03:35.124Z,11.03
2019-05-09T22:06:05.766Z,10.98
2019-05-09T22:08:36.635Z,10.93
2019-05-09T22:11:07.140Z,10.89
2019-05-09T22:13:37.982Z,10.83
2019-05-09T22:16:09.020Z,10.80
2019-05-09T22:18:39.930Z,10.77
2019-05-09T22:21:12.322Z,10.74
2019-05-09T22:23:55.349Z,10.72
2019-05-09T22:26:16.352Z,10.71
2019-05-09T22:28:46.772Z,10.74
2019-05-09T22:31:17.038Z,10.79
2019-05-09T22:33:47.235Z,10.89
2019-05-09T22:36:17.497Z,11.00
2019-05-09T22:38:47.755Z,11.10
2019-05-09T22:41:18.055Z,11.19
2019-05-09T22:43:48.349Z,11.27
2019-05-09T22:46:18.649Z,11.33
2019-05-09T22:48:48.927Z,11.37
2019-05-09T22:51:19.219Z,11.42
2019-05-09T22:53:49.527Z,11.44
2019-05-09T22:56:19.820Z,11.46
2019-05-09T22:58:50.246Z,11.47
2019-05-09T23:01:20.545Z,11.50
2019-05-09T23:03:50.791Z,11.52
2019-05-09T23:06:21.343Z,11.52
2019-05-09T23:08:51.757Z,11.52
2019-05-09T23:11:22.090Z,11.54
2019-05-09T23:13:52.356Z,11.54
2019-05-09T23:16:28.523Z,11.56
2019-05-09T23:18:58.752Z,11.59
2019-05-09T23:21:29.736Z,11.61
2019-05-09T23:24:10.815Z,11.63
2019-05-09T23:26:41.036Z,11.66
2019-05-09T23:29:11.194Z,11.68
2019-05-09T23:31:52.853Z,11.71
2019-05-09T23:34:23.111Z,11.76
2019-05-09T23:36:53.300Z,11.79
2019-05-09T23:39:25.526Z,11.81
2019-05-09T23:41:55.856Z,11.83
2019-05-09T23:44:25.999Z,11.86
2019-05-09T23:46:56.207Z,11.84
2019-05-09T23:49:26.279Z,11.94
2019-05-09T23:51:58.790Z,11.91
2019-05-09T23:54:47.653Z,11.92
2019-05-09T23:57:35.686Z,11.89
